createdAt,value
2023-01-25T00:00:55.019Z,2.27
2023-01-25T00:03:24.999Z,1.34
2023-01-25T00:06:01.502Z,2.23
2023-01-25T00:08:30.123Z,2.07
2023-01-25T00:10:58.752Z,2.26
2023-01-25T00:13:27.569Z,2.27
2023-01-25T00:16:01.711Z,2.25
2023-01-25T00:18:31.728Z,2.10
2023-01-25T00:21:00.509Z,2.19
2023-01-25T00:23:29.232Z,2.15
2023-01-25T00:26:00.758Z,2.12
2023-01-25T00:28:29.261Z,2.16
2023-01-25T00:31:01.333Z,2.22
2023-01-25T00:33:50.588Z,2.31
2023-01-25T00:36:35.368Z,2.10
2023-01-25T00:39:07.057Z,2.46
2023-01-25T00:41:35.595Z,2.21
2023-01-25T00:44:04.864Z,2.50
2023-01-25T00:46:33.403Z,2.40
2023-01-25T00:49:03.650Z,2.47
2023-01-25T00:51:32.508Z,2.23
2023-01-25T00:54:01.449Z,2.11
2023-01-25T00:56:30.267Z,2.20
2023-01-25T00:58:58.634Z,2.22
2023-01-25T01:01:27.462Z,2.01
2023-01-25T01:03:55.988Z,0.95
2023-01-25T01:06:26.089Z,2.18
2023-01-25T01:08:55.403Z,2.21
2023-01-25T01:11:25.155Z,2.28
2023-01-25T01:13:53.683Z,2.36
2023-01-25T01:16:22.185Z,2.20
2023-01-25T01:18:54.317Z,2.46
2023-01-25T01:21:23.386Z,2.51
2023-01-25T01:23:55.318Z,2.58
2023-01-25T01:26:24.158Z,2.61
2023-01-25T01:28:52.689Z,2.65
2023-01-25T01:31:24.593Z,2.68
2023-01-25T01:34:05.163Z,2.68
2023-01-25T01:36:33.787Z,2.21
2023-01-25T01:39:04.937Z,2.67
2023-01-25T01:41:33.465Z,2.59
2023-01-25T01:44:02.315Z,2.57
2023-01-25T01:46:37.472Z,2.14
2023-01-25T01:49:18.135Z,2.64
2023-01-25T01:51:53.910Z,1.60
2023-01-25T01:54:35.446Z,2.64
2023-01-25T01:57:15.486Z,2.40
2023-01-25T01:59:52.012Z,2.65
2023-01-25T02:02:25.289Z,2.60
2023-01-25T02:05:00.985Z,2.69
2023-01-25T02:07:35.855Z,2.64
2023-01-25T02:10:10.770Z,2.65
2023-01-25T02:12:41.830Z,2.62
2023-01-25T02:15:12.168Z,2.42
2023-01-25T02:17:42.989Z,2.62
2023-01-25T02:20:27.422Z,2.64
2023-01-25T02:23:04.780Z,2.13
2023-01-25T02:25:34.811Z,2.44
2023-01-25T02:28:10.382Z,2.63
2023-01-25T02:30:39.258Z,2.48
2023-01-25T02:33:07.746Z,1.36
2023-01-25T02:35:45.048Z,2.65
2023-01-25T02:38:16.510Z,2.42
2023-01-25T02:40:55.243Z,2.62
2023-01-25T02:43:30.383Z,2.44
2023-01-25T02:46:06.585Z,2.30
2023-01-25T02:48:35.091Z,2.25
2023-01-25T02:51:03.652Z,2.26
2023-01-25T02:53:32.156Z,2.32
2023-01-25T02:56:02.646Z,1.98
2023-01-25T02:58:35.385Z,1.73
2023-01-25T03:01:04.258Z,2.45
2023-01-25T03:03:33.365Z,2.44
2023-01-25T03:06:02.153Z,2.46
2023-01-25T03:08:31.857Z,2.47
2023-01-25T03:11:03.293Z,2.50
2023-01-25T03:13:34.013Z,2.55
2023-01-25T03:16:05.177Z,2.47
2023-01-25T03:18:35.107Z,2.35
2023-01-25T03:21:10.309Z,2.34
2023-01-25T03:23:39.471Z,2.36
2023-01-25T03:26:13.558Z,1.39
2023-01-25T03:28:57.310Z,2.37
2023-01-25T03:31:26.504Z,2.44
2023-01-25T03:33:55.003Z,2.43
2023-01-25T03:36:27.948Z,2.49
2023-01-25T03:38:56.689Z,2.47
2023-01-25T03:41:26.586Z,2.22
2023-01-25T03:43:58.998Z,2.41
2023-01-25T03:46:29.385Z,2.43
2023-01-25T03:49:01.003Z,2.47
2023-01-25T03:51:29.885Z,2.51
2023-01-25T03:53:59.124Z,2.45
2023-01-25T03:56:30.985Z,2.49
2023-01-25T03:59:07.008Z,2.35
2023-01-25T04:01:36.568Z,2.15
2023-01-25T04:04:05.118Z,2.43
2023-01-25T04:06:34.520Z,2.22
2023-01-25T04:09:04.549Z,2.46
2023-01-25T04:11:43.876Z,2.51
2023-01-25T04:14:14.252Z,2.36
2023-01-25T04:16:52.513Z,2.19
2023-01-25T04:19:28.220Z,2.46
2023-01-25T04:22:00.229Z,2.01
2023-01-25T04:24:34.347Z,2.14
2023-01-25T04:27:07.347Z,2.10
2023-01-25T04:29:42.265Z,1.85
2023-01-25T04:32:16.698Z,2.46
2023-01-25T04:34:45.392Z,2.03
2023-01-25T04:37:20.855Z,2.39
2023-01-25T04:39:55.249Z,2.60
2023-01-25T04:42:26.577Z,2.67
2023-01-25T04:44:58.389Z,2.68
2023-01-25T04:47:28.537Z,2.27
2023-01-25T04:49:58.011Z,2.06
2023-01-25T04:52:30.559Z,2.71
2023-01-25T04:54:59.279Z,2.69
2023-01-25T04:57:29.455Z,2.71
2023-01-25T04:59:59.598Z,2.73
2023-01-25T05:02:29.712Z,2.74
2023-01-25T05:04:58.347Z,2.75
2023-01-25T05:07:27.194Z,2.49
2023-01-25T05:09:55.847Z,2.80
2023-01-25T05:12:26.205Z,2.53
2023-01-25T05:15:04.312Z,2.73
2023-01-25T05:17:32.866Z,2.80
2023-01-25T05:20:02.192Z,2.87
2023-01-25T05:22:30.858Z,2.89
2023-01-25T05:25:01.906Z,2.90
2023-01-25T05:27:30.148Z,2.88
2023-01-25T05:29:59.049Z,2.90
2023-01-25T05:32:38.644Z,1.52
2023-01-25T05:35:10.387Z,1.36
2023-01-25T05:37:40.548Z,2.87
2023-01-25T05:40:16.184Z,2.87
2023-01-25T05:42:45.900Z,2.88
2023-01-25T05:45:18.927Z,2.89
2023-01-25T05:47:54.938Z,1.85
2023-01-25T05:50:24.017Z,2.82
2023-01-25T05:53:02.044Z,1.84
2023-01-25T05:55:31.952Z,2.85
2023-01-25T05:58:05.924Z,2.83
2023-01-25T06:00:34.750Z,2.79
2023-01-25T06:03:09.129Z,2.78
2023-01-25T06:05:43.753Z,2.79
2023-01-25T06:08:12.715Z,2.81
2023-01-25T06:10:50.622Z,1.99
2023-01-25T06:13:19.607Z,2.57
2023-01-25T06:15:57.554Z,2.79
2023-01-25T06:18:48.241Z,2.88
2023-01-25T06:21:26.281Z,2.69
2023-01-25T06:23:55.752Z,2.72
2023-01-25T06:26:24.282Z,2.78
2023-01-25T06:28:53.508Z,2.83
2023-01-25T06:31:23.464Z,2.65
2023-01-25T06:33:55.392Z,2.45
2023-01-25T06:36:24.793Z,2.67
2023-01-25T06:38:54.314Z,2.20
2023-01-25T06:41:23.273Z,1.25
2023-01-25T06:43:53.332Z,2.77
2023-01-25T06:46:22.140Z,2.77
2023-01-25T06:48:52.446Z,2.79
2023-01-25T06:51:21.381Z,2.78
2023-01-25T06:53:49.771Z,2.78
2023-01-25T06:56:21.631Z,2.48
2023-01-25T06:58:50.878Z,2.73
2023-01-25T07:01:22.057Z,2.67
2023-01-25T07:03:53.271Z,2.55
2023-01-25T07:06:22.787Z,2.47
2023-01-25T07:08:51.622Z,2.23
2023-01-25T07:11:20.484Z,2.63
2023-01-25T07:13:49.611Z,2.68
2023-01-25T07:16:21.802Z,2.44
2023-01-25T07:18:50.319Z,2.70
2023-01-25T07:21:22.967Z,2.52
2023-01-25T07:23:52.302Z,2.42
2023-01-25T07:26:24.987Z,2.66
2023-01-25T07:28:54.993Z,2.53
2023-01-25T07:31:23.914Z,2.74
2023-01-25T07:33:53.901Z,2.78
2023-01-25T07:36:28.766Z,2.85
2023-01-25T07:38:59.230Z,2.56
2023-01-25T07:41:29.572Z,1.06
2023-01-25T07:43:58.402Z,2.85
2023-01-25T07:46:42.821Z,2.85
2023-01-25T07:49:11.418Z,2.69
2023-01-25T07:51:41.316Z,2.91
2023-01-25T07:54:13.314Z,2.96
2023-01-25T07:56:41.783Z,3.01
2023-01-25T07:59:14.293Z,2.86
2023-01-25T08:01:43.023Z,3.00
2023-01-25T08:04:11.493Z,2.99
2023-01-25T08:06:41.436Z,2.26
2023-01-25T08:09:14.478Z,3.00
2023-01-25T08:11:43.974Z,2.74
2023-01-25T08:14:12.657Z,2.99
2023-01-25T08:16:41.424Z,3.00
2023-01-25T08:19:12.089Z,3.01
2023-01-25T08:21:42.040Z,2.97
2023-01-25T08:24:10.773Z,3.12
2023-01-25T08:26:39.611Z,3.13
2023-01-25T08:29:08.256Z,3.09
2023-01-25T08:31:38.238Z,3.07
2023-01-25T08:34:07.135Z,2.75
2023-01-25T08:36:35.865Z,3.03
2023-01-25T08:39:09.069Z,2.89
2023-01-25T08:41:38.739Z,2.59
2023-01-25T08:44:07.307Z,2.60
2023-01-25T08:46:36.015Z,2.91
2023-01-25T08:49:05.477Z,2.90
2023-01-25T08:51:34.882Z,3.00
2023-01-25T08:54:14.077Z,3.24
2023-01-25T08:56:43.571Z,3.24
2023-01-25T08:59:13.648Z,2.94
2023-01-25T09:01:42.087Z,3.23
2023-01-25T09:04:10.857Z,3.20
2023-01-25T09:06:39.427Z,3.19
2023-01-25T09:09:09.963Z,3.21
2023-01-25T09:11:40.372Z,3.17
2023-01-25T09:14:09.221Z,3.20
2023-01-25T09:16:38.845Z,3.09
2023-01-25T09:19:07.640Z,3.29
2023-01-25T09:21:37.160Z,3.07
2023-01-25T09:24:07.701Z,3.38
2023-01-25T09:26:41.682Z,3.41
2023-01-25T09:29:13.602Z,3.22
2023-01-25T09:31:43.867Z,3.44
2023-01-25T09:34:30.760Z,3.45
2023-01-25T09:36:59.501Z,3.47
2023-01-25T09:39:28.000Z,3.46
2023-01-25T09:42:41.153Z,3.49
2023-01-25T09:45:32.701Z,3.51
2023-01-25T09:48:18.858Z,2.99
2023-01-25T09:51:19.230Z,3.49
2023-01-25T09:53:52.866Z,3.52
2023-01-25T09:56:27.515Z,3.51
2023-01-25T09:59:02.137Z,3.22
2023-01-25T10:01:45.648Z,3.51
2023-01-25T10:04:20.081Z,3.20
2023-01-25T10:07:00.879Z,3.29
2023-01-25T10:09:43.831Z,3.23
2023-01-25T10:12:21.450Z,3.11
2023-01-25T10:14:52.462Z,3.22
2023-01-25T10:17:31.617Z,2.93
2023-01-25T10:20:24.993Z,2.75
2023-01-25T10:23:09.031Z,3.37
2023-01-25T10:25:46.772Z,3.44
2023-01-25T10:28:38.923Z,3.53
2023-01-25T10:31:19.418Z,3.46
2023-01-25T10:33:50.283Z,3.59
2023-01-25T10:36:28.947Z,3.61
2023-01-25T10:39:00.815Z,3.64
2023-01-25T10:41:40.906Z,3.32
2023-01-25T10:44:24.548Z,3.59
2023-01-25T10:47:01.804Z,3.55
2023-01-25T10:49:41.516Z,3.49
2023-01-25T10:52:22.258Z,3.19
2023-01-25T10:55:14.900Z,3.51
2023-01-25T10:57:46.077Z,3.27
2023-01-25T11:00:29.881Z,3.51
2023-01-25T11:03:00.884Z,3.51
2023-01-25T11:05:34.391Z,3.34
2023-01-25T11:08:25.143Z,3.63
2023-01-25T11:10:54.876Z,3.69
2023-01-25T11:13:27.737Z,3.54
2023-01-25T11:16:17.173Z,3.42
2023-01-25T11:18:55.111Z,3.62
2023-01-25T11:21:26.329Z,3.44
2023-01-25T11:24:18.460Z,3.68
2023-01-25T11:26:47.499Z,3.09
2023-01-25T11:29:19.500Z,3.34
2023-01-25T11:31:51.528Z,3.73
2023-01-25T11:34:27.601Z,3.54
2023-01-25T11:37:20.017Z,3.56
2023-01-25T11:40:04.380Z,3.54
2023-01-25T11:42:46.583Z,3.01
2023-01-25T11:45:46.547Z,3.62
2023-01-25T11:48:43.496Z,3.61
2023-01-25T11:51:27.623Z,3.59
2023-01-25T11:54:23.805Z,3.62
2023-01-25T11:57:00.440Z,3.62
2023-01-25T11:59:54.895Z,3.61
2023-01-25T12:03:17.003Z,3.20
2023-01-25T12:06:03.035Z,3.52
2023-01-25T12:08:54.331Z,3.49
2023-01-25T12:11:41.956Z,3.46
2023-01-25T12:14:25.799Z,3.49
2023-01-25T12:17:19.063Z,3.52
2023-01-25T12:20:12.381Z,3.48
2023-01-25T12:23:28.486Z,3.39
2023-01-25T12:26:11.369Z,3.37
2023-01-25T12:28:48.695Z,3.44
2023-01-25T12:31:25.379Z,2.87
2023-01-25T12:34:03.190Z,3.36
2023-01-25T12:36:37.132Z,2.86
2023-01-25T12:39:15.156Z,3.20
2023-01-25T12:41:50.438Z,3.31
2023-01-25T12:44:26.778Z,3.27
2023-01-25T12:47:09.037Z,3.07
2023-01-25T12:49:45.205Z,3.23
2023-01-25T12:52:25.496Z,3.22
2023-01-25T12:54:58.489Z,2.96
2023-01-25T12:57:37.696Z,3.15
2023-01-25T13:00:20.573Z,2.56
2023-01-25T13:03:05.423Z,3.12
2023-01-25T13:05:44.483Z,3.13
2023-01-25T13:08:32.041Z,3.13
2023-01-25T13:11:14.504Z,2.84
2023-01-25T13:13:43.311Z,3.17
2023-01-25T13:16:43.167Z,3.21
2023-01-25T13:19:23.707Z,3.20
2023-01-25T13:21:56.620Z,2.53
2023-01-25T13:24:27.571Z,3.12
2023-01-25T13:27:04.837Z,3.15
2023-01-25T13:29:59.142Z,2.95
2023-01-25T13:33:06.814Z,3.21
2023-01-25T13:35:45.653Z,3.23
2023-01-25T13:38:35.608Z,3.17
2023-01-25T13:41:16.813Z,3.16
2023-01-25T13:43:54.351Z,2.96
2023-01-25T13:46:27.055Z,3.19
2023-01-25T13:49:08.135Z,3.16
2023-01-25T13:51:41.900Z,2.59
2023-01-25T13:54:18.150Z,3.19
2023-01-25T13:56:47.081Z,3.06
2023-01-25T13:59:29.648Z,3.21
2023-01-25T14:02:00.443Z,3.18
2023-01-25T14:04:30.470Z,3.19
2023-01-25T14:07:02.971Z,2.94
2023-01-25T14:09:31.805Z,3.10
2023-01-25T14:12:04.506Z,2.54
2023-01-25T14:14:35.992Z,3.05
2023-01-25T14:17:24.312Z,3.10
2023-01-25T14:19:56.998Z,3.11
2023-01-25T14:22:28.677Z,3.09
2023-01-25T14:25:13.243Z,3.08
2023-01-25T14:27:48.417Z,2.52
2023-01-25T14:30:25.899Z,2.97
2023-01-25T14:32:57.848Z,2.99
2023-01-25T14:35:53.900Z,2.95
2023-01-25T14:38:28.596Z,2.72
2023-01-25T14:41:03.287Z,2.06
2023-01-25T14:43:33.252Z,2.16
2023-01-25T14:46:18.578Z,2.27
2023-01-25T14:48:47.236Z,2.86
2023-01-25T14:51:28.655Z,2.84
2023-01-25T14:54:04.969Z,1.71
2023-01-25T14:56:43.304Z,2.28
2023-01-25T14:59:33.732Z,2.37
2023-01-25T15:02:19.111Z,2.68
2023-01-25T15:05:11.068Z,2.68
2023-01-25T15:07:48.658Z,2.64
2023-01-25T15:10:21.604Z,2.60
2023-01-25T15:13:13.313Z,2.60
2023-01-25T15:15:54.866Z,2.59
2023-01-25T15:18:48.055Z,2.54
2023-01-25T15:21:19.621Z,2.03
2023-01-25T15:23:52.372Z,1.88
2023-01-25T15:26:23.739Z,2.46
2023-01-25T15:28:55.782Z,2.03
2023-01-25T15:31:29.817Z,2.45
2023-01-25T15:34:01.919Z,1.97
2023-01-25T15:36:33.208Z,2.20
2023-01-25T15:39:02.106Z,2.37
2023-01-25T15:41:30.901Z,2.40
2023-01-25T15:44:01.409Z,2.45
2023-01-25T15:46:33.708Z,2.55
2023-01-25T15:49:07.158Z,2.47
2023-01-25T15:51:36.694Z,2.39
2023-01-25T15:54:07.585Z,2.34
2023-01-25T15:56:39.017Z,2.36
2023-01-25T15:59:14.963Z,2.24
2023-01-25T16:01:43.838Z,2.16
2023-01-25T16:04:14.703Z,2.37
2023-01-25T16:06:46.779Z,2.37
2023-01-25T16:09:20.362Z,2.38
2023-01-25T16:11:52.580Z,1.98
2023-01-25T16:14:23.767Z,2.32
2023-01-25T16:16:54.687Z,2.28
2023-01-25T16:19:26.263Z,2.28
2023-01-25T16:21:55.197Z,2.28
2023-01-25T16:24:24.242Z,2.31
2023-01-25T16:26:56.913Z,2.33
2023-01-25T16:29:26.355Z,2.34
2023-01-25T16:31:55.859Z,1.82
2023-01-25T16:34:26.362Z,2.26
2023-01-25T16:36:55.388Z,2.27
2023-01-25T16:39:26.519Z,2.11
2023-01-25T16:41:57.282Z,2.30
2023-01-25T16:44:26.320Z,2.30
2023-01-25T16:46:55.437Z,1.86
2023-01-25T16:49:27.605Z,2.29
2023-01-25T16:51:56.320Z,2.25
2023-01-25T16:54:26.291Z,2.23
2023-01-25T16:56:55.924Z,2.24
2023-01-25T16:59:26.169Z,2.10
2023-01-25T17:01:54.817Z,2.09
2023-01-25T17:04:23.286Z,2.12
2023-01-25T17:06:54.208Z,2.20
2023-01-25T17:09:25.504Z,2.22
2023-01-25T17:11:55.357Z,2.21
2023-01-25T17:14:24.779Z,2.23
2023-01-25T17:16:53.602Z,2.24
2023-01-25T17:19:22.716Z,2.17
2023-01-25T17:24:42.844Z,2.12
2023-01-25T17:27:11.971Z,2.10
2023-01-25T17:29:41.166Z,2.12
2023-01-25T17:32:10.002Z,2.08
2023-01-25T17:34:38.805Z,2.10
2023-01-25T17:37:07.776Z,2.08
2023-01-25T17:39:36.816Z,2.06
2023-01-25T17:42:09.158Z,2.02
2023-01-25T17:44:38.107Z,2.00
2023-01-25T17:47:06.976Z,2.01
2023-01-25T17:49:36.107Z,1.99
2023-01-25T17:52:05.308Z,1.99
2023-01-25T17:54:36.350Z,1.99
2023-01-25T17:57:06.738Z,2.00
2023-01-25T17:59:35.570Z,1.98
2023-01-25T18:02:06.519Z,1.99
2023-01-25T18:04:35.903Z,2.01
2023-01-25T18:07:04.920Z,2.04
2023-01-25T18:09:36.026Z,2.08
2023-01-25T18:12:06.529Z,2.08
2023-01-25T18:14:35.624Z,2.06
2023-01-25T18:17:04.726Z,2.02
2023-01-25T18:19:33.668Z,2.04
2023-01-25T18:22:02.598Z,2.05
2023-01-25T18:24:34.177Z,0.75
2023-01-25T18:27:08.984Z,0.19
2023-01-25T18:29:48.980Z,1.33
2023-01-25T18:32:20.388Z,2.11
2023-01-25T18:34:49.460Z,2.12
2023-01-25T18:37:21.908Z,2.15
2023-01-25T18:39:52.199Z,2.13
2023-01-25T18:42:24.931Z,2.18
2023-01-25T18:44:53.834Z,2.18
2023-01-25T18:47:24.394Z,1.73
2023-01-25T18:49:54.328Z,1.75
2023-01-25T18:52:24.644Z,2.08
2023-01-25T18:54:53.488Z,2.09
2023-01-25T18:57:24.009Z,2.16
2023-01-25T18:59:55.758Z,2.13
2023-01-25T19:02:24.839Z,2.12
2023-01-25T19:04:53.742Z,2.11
2023-01-25T19:07:22.545Z,2.04
2023-01-25T19:09:51.050Z,1.99
2023-01-25T19:12:19.568Z,2.05
2023-01-25T19:14:49.612Z,0.47
2023-01-25T19:17:18.674Z,2.06
2023-01-25T19:19:47.505Z,2.11
2023-01-25T19:22:16.486Z,2.13
2023-01-25T19:24:45.357Z,2.14
2023-01-25T19:27:14.249Z,2.15
2023-01-25T19:29:42.922Z,1.41
2023-01-25T19:32:12.760Z,0.94
2023-01-25T19:34:41.270Z,1.89
2023-01-25T19:37:10.108Z,2.05
2023-01-25T19:39:38.578Z,1.93
2023-01-25T19:42:07.592Z,1.12
2023-01-25T19:44:36.067Z,2.07
2023-01-25T19:47:05.051Z,1.80
2023-01-25T19:49:34.932Z,2.08
2023-01-25T19:52:03.643Z,2.02
2023-01-25T19:54:32.237Z,2.10
2023-01-25T19:57:00.692Z,2.11
2023-01-25T19:59:29.568Z,2.13
2023-01-25T20:01:58.079Z,1.04
2023-01-25T20:04:26.573Z,2.07
2023-01-25T20:06:56.758Z,2.09
2023-01-25T20:09:28.044Z,2.11
2023-01-25T20:11:57.960Z,2.10
2023-01-25T20:14:26.466Z,2.09
2023-01-25T20:16:54.990Z,2.06
2023-01-25T20:19:23.704Z,2.01
2023-01-25T20:21:52.294Z,2.12
2023-01-25T20:24:22.232Z,2.13
2023-01-25T20:26:51.284Z,1.24
2023-01-25T20:29:21.502Z,2.16
2023-01-25T20:31:50.205Z,2.13
2023-01-25T20:34:21.173Z,1.75
2023-01-25T20:36:50.982Z,2.09
2023-01-25T20:39:23.166Z,1.39
2023-01-25T20:41:53.546Z,2.15
2023-01-25T20:44:22.431Z,1.89
2023-01-25T20:46:54.416Z,1.87
2023-01-25T20:49:23.213Z,2.16
2023-01-25T20:51:51.903Z,2.15
2023-01-25T20:54:22.140Z,2.17
2023-01-25T20:56:50.697Z,1.99
2023-01-25T20:59:19.385Z,2.17
2023-01-25T21:01:51.898Z,2.18
2023-01-25T21:04:20.906Z,2.16
2023-01-25T21:06:49.295Z,2.17
2023-01-25T21:09:17.922Z,2.17
2023-01-25T21:11:48.734Z,2.18
2023-01-25T21:14:21.090Z,2.07
2023-01-25T21:16:49.907Z,2.16
2023-01-25T21:19:18.484Z,1.98
2023-01-25T21:21:47.428Z,2.11
2023-01-25T21:24:16.262Z,2.09
2023-01-25T21:26:45.250Z,2.08
2023-01-25T21:29:15.461Z,2.06
2023-01-25T21:31:44.350Z,2.09
2023-01-25T21:34:13.241Z,2.12
2023-01-25T21:36:42.091Z,2.16
2023-01-25T21:39:10.817Z,1.01
2023-01-25T21:41:39.700Z,2.14
2023-01-25T21:44:26.048Z,0.98
2023-01-25T21:47:23.506Z,1.42
2023-01-25T21:50:02.931Z,2.13
2023-01-25T21:52:31.435Z,2.13
2023-01-25T21:55:00.865Z,2.17
2023-01-25T21:57:30.192Z,2.17
2023-01-25T21:59:59.086Z,2.16
2023-01-25T22:02:30.817Z,2.14
2023-01-25T22:04:59.459Z,1.88
2023-01-25T22:07:28.300Z,2.04
2023-01-25T22:09:57.194Z,2.16
2023-01-25T22:12:28.765Z,2.16
2023-01-25T22:14:59.438Z,2.15
2023-01-25T22:17:29.783Z,2.11
2023-01-25T22:19:58.710Z,2.08
2023-01-25T22:22:27.530Z,2.09
2023-01-25T22:24:56.890Z,2.09
2023-01-25T22:27:38.238Z,1.64
2023-01-25T22:30:08.941Z,2.07
2023-01-25T22:32:39.895Z,2.07
2023-01-25T22:35:10.120Z,2.02
2023-01-25T22:37:38.965Z,1.99
2023-01-25T22:40:09.983Z,1.96
2023-01-25T22:42:39.135Z,1.94
2023-01-25T22:45:09.317Z,1.93
2023-01-25T22:47:41.942Z,1.96
2023-01-25T22:50:12.681Z,1.96
2023-01-25T22:52:41.758Z,1.95
2023-01-25T22:55:11.152Z,1.19
2023-01-25T22:57:40.003Z,1.99
2023-01-25T23:00:10.881Z,2.00
2023-01-25T23:02:41.464Z,1.99
2023-01-25T23:05:10.665Z,1.99
2023-01-25T23:07:39.500Z,2.00
2023-01-25T23:10:09.908Z,1.74
2023-01-25T23:12:38.927Z,2.00
2023-01-25T23:15:15.468Z,1.96
2023-01-25T23:18:03.183Z,1.94
2023-01-25T23:20:32.346Z,1.94
2023-01-25T23:23:00.905Z,1.95
2023-01-25T23:25:30.431Z,1.99
2023-01-25T23:27:59.379Z,1.96
2023-01-25T23:30:28.287Z,1.91
2023-01-25T23:32:58.840Z,1.88
2023-01-25T23:35:27.727Z,1.88
2023-01-25T23:37:56.604Z,1.93
2023-01-25T23:40:25.800Z,1.94
2023-01-25T23:42:54.625Z,1.91
2023-01-25T23:45:27.474Z,1.92
2023-01-25T23:47:59.617Z,1.89
2023-01-25T23:50:28.559Z,1.84
2023-01-25T23:52:57.515Z,1.81
2023-01-25T23:55:26.504Z,1.76
2023-01-25T23:57:55.747Z,1.80
